Time;durP1;ratioP1;P1;durP2;ratioP2;P2;SDS_P1;SDS_P2;PMS_P1;PMS_P2;Temp;Humidity;BMP_temperature;BMP_pressure;BME280_temperature;BME280_humidity;BME280_pressure;Samples;Min_cycle;Max_cycle;Signal;HPM_P1;HPM_P2
2021/04/04 00:00:51;;;;;;;;;3.00;3.00;;;;;14.95;40.29;98762.78;4879526;28;103673;-85
2021/04/04 00:03:18;;;;;;;;;2.75;2.00;;;;;14.96;39.80;98764.47;4876888;28;104168;-85
2021/04/04 00:05:44;;;;;;;;;3.50;3.25;;;;;14.96;40.09;98764.47;4862526;28;102612;-85
2021/04/04 00:08:11;;;;;;;;;3.50;3.50;;;;;14.96;40.39;98766.34;4879012;28;103461;-85
2021/04/04 00:10:38;;;;;;;;;3.00;2.25;;;;;14.96;39.88;98767.19;4876205;28;103464;-85
2021/04/04 00:13:08;;;;;;;;;5.00;3.25;;;;;14.96;40.17;98767.19;4877332;28;103697;-85
2021/04/04 00:15:36;;;;;;;;;4.00;3.00;;;;;14.95;39.74;98776.41;4881700;28;103105;-88
2021/04/04 00:18:03;;;;;;;;;3.00;2.00;;;;;14.93;39.89;98770.38;4877594;28;104158;-88
2021/04/04 00:20:30;;;;;;;;;2.25;1.75;;;;;14.91;40.20;98772.47;4870554;28;103304;-89
2021/04/04 00:22:57;;;;;;;;;4.00;4.00;;;;;14.93;40.31;98772.25;4876744;28;102278;-89
2021/04/04 00:25:24;;;;;;;;;4.00;3.00;;;;;14.91;39.86;98775.19;4874728;28;101702;-88
2021/04/04 00:27:51;;;;;;;;;3.00;3.00;;;;;14.90;40.56;98768.13;4879766;28;103672;-89
2021/04/04 00:30:20;;;;;;;;;1.75;1.75;;;;;14.90;39.91;98778.16;4878444;28;103642;-89
2021/04/04 00:32:49;;;;;;;;;3.00;2.00;;;;;14.90;40.39;98773.56;4874751;28;102066;-89
2021/04/04 00:35:18;;;;;;;;;4.00;3.00;;;;;14.89;39.76;98776.50;4882810;28;102189;-89
2021/04/04 00:37:49;;;;;;;;;2.75;2.00;;;;;14.89;39.97;98771.03;4877666;28;102749;-88
2021/04/04 00:40:21;;;;;;;;;4.00;3.50;;;;;14.88;39.74;98772.09;4879341;28;103377;-88
2021/04/04 00:42:47;;;;;;;;;4.75;4.00;;;;;14.87;39.79;98776.72;4870567;28;102007;-89
2021/04/04 00:45:25;;;;;;;;;3.25;3.00;;;;;14.87;40.38;98773.97;4880014;28;101891;-89
2021/04/04 00:47:52;;;;;;;;;2.50;2.50;;;;;14.85;39.90;98767.94;4884087;28;102058;-88
2021/04/04 00:50:22;;;;;;;;;3.75;3.00;;;;;14.87;40.39;98779.44;4888519;28;103918;-89
2021/04/04 00:52:50;;;;;;;;;4.00;2.75;;;;;14.85;40.37;98769.84;4877184;28;102843;-88
2021/04/04 00:55:17;;;;;;;;;2.50;2.50;;;;;14.84;39.71;98774.44;4879683;28;102284;-88
2021/04/04 00:57:43;;;;;;;;;2.75;2.75;;;;;14.85;39.92;98780.72;4879408;28;102737;-88
2021/04/04 01:00:12;;;;;;;;;3.00;3.00;;;;;14.83;40.24;98775.50;4878112;28;103411;-88
2021/04/04 01:02:39;;;;;;;;;3.75;2.50;;;;;14.82;40.21;98776.53;4881237;28;102059;-89
2021/04/04 01:05:07;;;;;;;;;3.50;3.25;;;;;14.82;40.46;98781.16;4882228;28;102149;-88
2021/04/04 01:07:34;;;;;;;;;1.00;1.00;;;;;14.81;39.65;98780.34;4862471;28;101765;-88
2021/04/04 01:10:03;;;;;;;;;2.00;2.00;;;;;14.82;40.24;98782.00;4881581;28;103653;-89
2021/04/04 01:12:39;;;;;;;;;3.00;3.00;;;;;14.81;40.02;98776.78;4880589;28;102186;-88
2021/04/04 01:15:09;;;;;;;;;2.50;2.00;;;;;14.80;40.13;98784.13;4878845;28;103457;-88
2021/04/04 01:17:36;;;;;;;;;3.25;3.00;;;;;14.80;39.92;98786.00;4856012;28;102512;-88
2021/04/04 01:20:06;;;;;;;;;3.50;3.00;;;;;14.79;39.55;98793.34;4871660;28;103936;-89
2021/04/04 01:22:44;;;;;;;;;2.50;2.00;;;;;14.79;40.19;98797.94;4876729;28;102856;-88
2021/04/04 01:25:17;;;;;;;;;3.00;3.00;;;;;14.77;39.81;98798.16;4856580;28;102086;-88
2021/04/04 01:27:52;;;;;;;;;5.75;4.00;;;;;14.77;40.00;98795.44;4881641;28;102892;-88
2021/04/04 01:30:19;;;;;;;;;3.00;3.00;;;;;14.76;40.33;98798.41;4877173;28;104615;-88
2021/04/04 01:32:47;;;;;;;;;4.25;3.00;;;;;14.76;39.77;98796.50;4878115;28;102151;-88
2021/04/04 01:35:15;;;;;;;;;2.50;2.00;;;;;14.74;40.11;98798.59;4872153;28;102682;-88
2021/04/04 01:37:42;;;;;;;;;3.50;2.75;;;;;14.75;40.06;98805.72;4862372;28;101960;-88
2021/04/04 01:40:12;;;;;;;;;2.50;2.00;;;;;14.73;39.95;98797.78;4870527;28;102449;-89
2021/04/04 01:42:39;;;;;;;;;4.00;3.00;;;;;14.74;39.67;98795.88;4857690;28;102090;-88
2021/04/04 01:45:07;;;;;;;;;4.00;3.00;;;;;14.74;40.46;98809.50;4859022;28;103170;-88
2021/04/04 01:47:34;;;;;;;;;2.00;2.00;;;;;14.73;40.16;98805.09;4872901;28;102204;-88
2021/04/04 01:50:01;;;;;;;;;3.00;3.00;;;;;14.73;40.24;98805.09;4861243;28;103444;-89
2021/04/04 01:52:28;;;;;;;;;3.50;3.00;;;;;14.72;39.68;98806.19;4859331;28;104003;-88
2021/04/04 01:54:55;;;;;;;;;4.25;2.75;;;;;14.72;40.13;98804.25;4875093;28;103832;-88
2021/04/04 01:57:22;;;;;;;;;3.00;2.75;;;;;14.72;40.17;98811.63;4850314;28;102305;-88
2021/04/04 01:59:48;;;;;;;;;3.50;3.50;;;;;14.70;40.00;98803.66;4863739;28;103966;-88
2021/04/04 02:02:15;;;;;;;;;3.00;3.00;;;;;14.70;39.79;98806.41;4867468;28;103472;-89
2021/04/04 02:04:42;;;;;;;;;3.00;3.00;;;;;14.69;40.27;98802.00;4874500;28;102511;-89
2021/04/04 02:07:10;;;;;;;;;4.00;2.25;;;;;14.70;40.14;98811.84;4870488;28;103396;-89
2021/04/04 02:09:36;;;;;;;;;3.00;3.00;;;;;14.68;40.10;98813.09;4878164;28;103367;-88
2021/04/04 02:12:03;;;;;;;;;3.75;3.75;;;;;14.69;39.64;98814.78;4873387;28;103031;-89
2021/04/04 02:14:30;;;;;;;;;3.25;3.00;;;;;14.67;39.99;98814.19;4884295;28;102181;-84
2021/04/04 02:16:57;;;;;;;;;2.50;2.00;;;;;14.66;40.20;98810.63;4867823;28;103019;-84
2021/04/04 02:19:24;;;;;;;;;2.00;2.00;;;;;14.67;39.98;98811.47;4863813;28;103628;-84
2021/04/04 02:21:53;;;;;;;;;2.25;1.25;;;;;14.66;40.17;98821.50;4881953;28;102273;-85
2021/04/04 02:24:20;;;;;;;;;3.75;3.00;;;;;14.66;40.05;98826.09;4876900;28;102089;-85
2021/04/04 02:26:47;;;;;;;;;1.50;1.50;;;;;14.65;40.19;98825.28;4882289;28;102392;-84
2021/04/04 02:29:14;;;;;;;;;2.75;2.00;;;;;14.64;39.70;98817.31;4877662;28;103413;-84
2021/04/04 02:31:43;;;;;;;;;2.00;2.00;;;;;14.64;40.19;98825.47;4878063;28;103303;-84
2021/04/04 02:34:14;;;;;;;;;4.00;3.00;;;;;14.64;40.24;98822.75;4886297;28;102529;-84
2021/04/04 02:36:41;;;;;;;;;3.00;3.00;;;;;14.63;40.05;98823.84;4883476;28;102312;-84
2021/04/04 02:39:13;;;;;;;;;2.50;2.50;;;;;14.61;40.08;98817.78;4846712;28;106411;-84
2021/04/04 02:41:40;;;;;;;;;3.25;2.00;;;;;14.62;39.86;98822.16;4869295;28;101839;-84
2021/04/04 02:44:07;;;;;;;;;5.00;3.00;;;;;14.61;40.12;98828.66;4860321;28;101734;-84
2021/04/04 02:46:33;;;;;;;;;2.75;2.75;;;;;14.60;39.71;98821.53;4880220;28;103900;-89
2021/04/04 02:49:02;;;;;;;;;2.50;2.50;;;;;14.61;40.25;98829.50;4849641;28;103569;-88
2021/04/04 02:51:38;;;;;;;;;3.00;2.00;;;;;14.61;40.06;98825.94;4860020;28;102199;-89
2021/04/04 02:54:06;;;;;;;;;4.00;4.00;;;;;14.60;39.61;98827.81;4858984;28;102174;-89
2021/04/04 02:56:38;;;;;;;;;2.75;2.00;;;;;14.59;39.57;98828.88;4859610;28;102010;-89
2021/04/04 02:59:08;;;;;;;;;4.00;3.25;;;;;14.59;40.00;98828.06;4875833;28;105407;-88
2021/04/04 03:01:35;;;;;;;;;3.00;2.00;;;;;14.58;40.08;98829.13;4861891;28;101935;-88
2021/04/04 03:04:04;;;;;;;;;2.00;2.00;;;;;14.58;39.83;98829.94;4879225;28;101984;-88
2021/04/04 03:06:32;;;;;;;;;3.75;2.00;;;;;14.57;40.01;98827.44;4868141;28;103244;-88
2021/04/04 03:08:59;;;;;;;;;3.00;2.00;;;;;14.55;39.69;98819.50;4851779;28;103553;-88
2021/04/04 03:11:25;;;;;;;;;2.00;2.00;;;;;14.56;39.56;98828.47;4883658;28;102137;-88
2021/04/04 03:13:52;;;;;;;;;2.25;2.00;;;;;14.56;39.95;98820.31;4874939;28;103803;-88
2021/04/04 03:16:19;;;;;;;;;3.50;2.00;;;;;14.54;39.39;98820.56;4879437;28;103863;-88
2021/04/04 03:18:46;;;;;;;;;3.00;3.00;;;;;14.55;39.99;98826.81;4848801;28;103415;-88
2021/04/04 03:21:13;;;;;;;;;3.50;2.00;;;;;14.54;39.63;98819.72;4851993;28;102201;-87
2021/04/04 03:23:40;;;;;;;;;3.50;2.00;;;;;14.53;39.61;98818.88;4876909;28;102076;-89
2021/04/04 03:26:07;;;;;;;;;2.75;1.75;;;;;14.51;40.24;98823.72;4877944;28;102337;-88
2021/04/04 03:28:33;;;;;;;;;3.00;2.25;;;;;14.51;39.50;98829.16;4856520;28;103631;-88
2021/04/04 03:31:01;;;;;;;;;2.50;2.00;;;;;14.53;40.12;98826.22;4861311;28;104397;-88
2021/04/04 03:33:27;;;;;;;;;2.25;2.00;;;;;14.50;40.35;98832.91;4861619;28;102357;-88
2021/04/04 03:35:54;;;;;;;;;2.00;2.00;;;;;14.50;40.05;98837.56;4850929;28;103841;-88
2021/04/04 03:38:22;;;;;;;;;3.00;2.75;;;;;14.50;39.52;98837.56;4878783;28;103459;-88
2021/04/04 03:40:49;;;;;;;;;3.25;2.00;;;;;14.48;40.44;98839.66;4879017;28;101982;-88
2021/04/04 03:43:27;;;;;;;;;3.00;2.00;;;;;14.49;39.48;98831.28;4862843;28;102003;-88
2021/04/04 03:45:58;;;;;;;;;4.00;2.75;;;;;14.48;40.10;98839.66;4866034;28;102097;-88
2021/04/04 03:48:25;;;;;;;;;3.25;2.00;;;;;14.48;40.16;98834.19;4872350;28;104316;-88
2021/04/04 03:50:52;;;;;;;;;3.00;3.00;;;;;14.48;39.85;98829.59;4884775;28;102152;-87
2021/04/04 03:53:20;;;;;;;;;2.00;2.00;;;;;14.48;39.57;98839.66;4861723;28;102089;-88
2021/04/04 03:55:52;;;;;;;;;3.00;1.00;;;;;14.47;40.06;98838.81;4862776;28;103100;-88
2021/04/04 03:58:20;;;;;;;;;1.75;1.00;;;;;14.46;40.01;98842.56;4866795;28;103461;-88
2021/04/04 04:00:47;;;;;;;;;2.00;2.00;;;;;14.44;39.60;98844.69;4878800;28;101994;-88
2021/04/04 04:03:14;;;;;;;;;2.00;2.00;;;;;14.45;39.59;98845.53;4838781;28;104346;-89
2021/04/04 04:05:41;;;;;;;;;3.25;2.00;;;;;14.43;40.18;98845.75;4880318;28;104353;-88
2021/04/04 04:08:08;;;;;;;;;3.25;2.00;;;;;14.44;39.78;98849.31;4879666;28;103633;-88
2021/04/04 04:10:34;;;;;;;;;3.25;2.75;;;;;14.43;40.02;98853.91;4860272;28;104300;-88
2021/04/04 04:13:01;;;;;;;;;2.50;2.00;;;;;14.43;39.48;98853.06;4862956;28;102549;-88
2021/04/04 04:15:28;;;;;;;;;2.00;2.00;;;;;14.42;39.94;98854.94;4866479;28;103681;-88
2021/04/04 04:17:55;;;;;;;;;2.00;1.00;;;;;14.41;39.58;98849.75;4864326;28;103971;-88
2021/04/04 04:20:21;;;;;;;;;3.00;2.00;;;;;14.40;39.52;98853.53;4872359;28;104069;-88
2021/04/04 04:22:48;;;;;;;;;2.00;1.00;;;;;14.39;39.79;98847.25;4879808;28;102630;-88
2021/04/04 04:25:15;;;;;;;;;2.00;2.00;;;;;14.39;39.47;98851.84;4869305;28;101845;-88
2021/04/04 04:27:42;;;;;;;;;1.25;1.25;;;;;14.39;39.50;98854.56;4878529;28;103739;-89
2021/04/04 04:30:09;;;;;;;;;1.00;1.00;;;;;14.38;40.05;98847.44;4849066;28;101794;-89
2021/04/04 04:32:37;;;;;;;;;2.00;1.75;;;;;14.38;40.03;98851.00;4867480;28;102358;-88
2021/04/04 04:35:05;;;;;;;;;2.75;2.25;;;;;14.37;40.17;98848.50;4886034;28;102443;-88
2021/04/04 04:37:36;;;;;;;;;2.00;2.00;;;;;14.38;39.55;98847.44;4883216;28;103437;-89
2021/04/04 04:40:07;;;;;;;;;3.00;3.00;;;;;14.37;39.83;98846.63;4883716;28;102057;-88
2021/04/04 04:42:35;;;;;;;;;2.50;2.00;;;;;14.37;39.68;98853.94;4865082;28;102975;-88
2021/04/04 04:45:03;;;;;;;;;1.00;1.00;;;;;14.36;40.21;98863.19;4856084;28;102745;-88
2021/04/04 04:47:29;;;;;;;;;1.00;1.00;;;;;14.36;40.04;98857.72;4883124;28;103756;-88
2021/04/04 04:49:56;;;;;;;;;1.00;1.00;;;;;14.36;39.98;98863.19;4846274;28;102256;-88
2021/04/04 04:52:23;;;;;;;;;3.50;2.00;;;;;14.36;40.19;98857.72;4875205;28;102035;-88
2021/04/04 04:54:50;;;;;;;;;3.00;2.00;;;;;14.34;39.67;98862.50;4875261;28;102040;-88
2021/04/04 04:57:17;;;;;;;;;1.00;1.00;;;;;14.32;39.91;98863.56;4860380;28;104489;-88
2021/04/04 04:59:45;;;;;;;;;1.50;1.50;;;;;14.33;39.31;98861.69;4864152;28;102720;-88
2021/04/04 05:02:11;;;;;;;;;2.50;2.50;;;;;14.32;39.75;98865.44;4852335;28;102086;-88
2021/04/04 05:04:38;;;;;;;;;2.00;1.50;;;;;14.32;39.86;98863.56;4865602;28;103380;-88
2021/04/04 05:07:06;;;;;;;;;1.00;1.00;;;;;14.32;40.19;98861.91;4883641;28;103302;-88
2021/04/04 05:09:32;;;;;;;;;1.25;1.25;;;;;14.32;39.59;98873.59;4866589;28;102938;-88
2021/04/04 05:11:59;;;;;;;;;1.00;1.00;;;;;14.30;39.83;98868.41;4864855;28;102235;-88
2021/04/04 05:14:26;;;;;;;;;1.00;1.00;;;;;14.30;40.12;98868.41;4851923;28;104360;-87
2021/04/04 05:16:53;;;;;;;;;1.00;1.00;;;;;14.30;40.20;98862.13;4857917;28;104021;-88
2021/04/04 05:19:19;;;;;;;;;1.50;1.00;;;;;14.29;39.94;98863.16;4879680;28;101787;-88
2021/04/04 05:21:46;;;;;;;;;1.00;1.00;;;;;14.29;39.57;98871.31;4862883;28;102750;-87
2021/04/04 05:24:15;;;;;;;;;1.00;1.00;;;;;14.30;39.51;98878.44;4883402;28;102238;-88
2021/04/04 05:26:44;;;;;;;;;1.00;0.25;;;;;14.28;39.61;98884.09;4874371;28;103774;-88
2021/04/04 05:29:12;;;;;;;;;4.75;2.00;;;;;14.28;40.19;98875.94;4884419;28;101990;-88
2021/04/04 05:31:47;;;;;;;;;0.75;0.75;;;;;14.28;39.63;98878.66;4883965;28;104703;-88
2021/04/04 05:34:15;;;;;;;;;1.00;1.00;;;;;14.28;40.04;98886.81;4878648;28;102965;-88
2021/04/04 05:36:48;;;;;;;;;1.25;1.00;;;;;14.29;40.08;98888.50;4885645;28;103433;-88
2021/04/04 05:39:16;;;;;;;;;1.00;1.00;;;;;14.26;39.40;98888.09;4887061;28;103005;-87
2021/04/04 05:41:48;;;;;;;;;1.00;1.00;;;;;14.26;40.24;98890.81;4881212;28;102065;-88
2021/04/04 05:44:20;;;;;;;;;2.00;1.00;;;;;14.27;39.81;98892.50;4873097;28;104049;-88
2021/04/04 05:46:51;;;;;;;;;2.00;1.00;;;;;14.24;40.10;98892.91;4880838;28;103532;-88
2021/04/04 05:49:36;;;;;;;;;0.25;0.00;;;;;14.25;40.09;98895.41;4867852;28;101923;-88
2021/04/04 05:52:25;;;;;;;;;0.00;0.00;;;;;14.25;39.96;98895.41;4882810;28;101735;-88
2021/04/04 05:55:00;;;;;;;;;2.00;2.00;;;;;14.24;40.00;98899.19;4880674;28;103734;-88
2021/04/04 05:57:30;;;;;;;;;1.00;1.00;;;;;14.24;39.22;98899.19;4879666;28;103821;-87
2021/04/04 06:00:00;;;;;;;;;1.00;1.00;;;;;14.23;40.25;98889.34;4867186;28;101936;-88
2021/04/04 06:03:04;;;;;;;;;2.00;1.00;;;;;14.24;39.22;98893.75;4885580;28;101903;-88
2021/04/04 06:05:42;;;;;;;;;1.75;1.75;;;;;14.24;39.70;98899.19;4883790;28;103343;-87
2021/04/04 06:08:28;;;;;;;;;2.00;1.00;;;;;14.23;39.62;98902.09;4876812;28;103416;-87
2021/04/04 06:11:18;;;;;;;;;1.00;1.00;;;;;14.22;39.58;98904.03;4867205;28;102232;-88
2021/04/04 06:14:06;;;;;;;;;3.75;1.00;;;;;14.22;39.46;98895.03;4886790;28;102331;-87
2021/04/04 06:16:53;;;;;;;;;0.00;0.00;;;;;14.20;40.03;98897.94;4875686;28;102425;-88
2021/04/04 06:19:46;;;;;;;;;1.00;1.00;;;;;14.20;39.36;98891.66;4855997;28;105422;-88
2021/04/04 06:22:12;;;;;;;;;0.75;0.25;;;;;14.18;40.08;98894.59;4869183;28;102984;-88
2021/04/04 06:25:26;;;;;;;;;1.00;0.00;;;;;14.19;40.03;98879.13;4865824;28;103827;-88
2021/04/04 06:28:09;;;;;;;;;2.00;1.50;;;;;14.17;39.30;98881.25;4825433;28;102081;-87
2021/04/04 06:30:55;;;;;;;;;1.75;1.00;;;;;14.17;39.74;98881.25;4874135;28;103369;-88
2021/04/04 06:33:26;;;;;;;;;2.50;1.25;;;;;14.16;38.96;98885.84;4874816;28;102849;-88
2021/04/04 06:36:28;;;;;;;;;1.50;1.00;;;;;14.16;39.53;98888.56;4867576;28;102148;-87
2021/04/04 06:39:04;;;;;;;;;2.00;1.00;;;;;14.16;40.03;98891.28;4834354;28;102307;-88
2021/04/04 06:41:53;;;;;;;;;2.00;1.00;;;;;14.16;39.97;98880.41;4860607;28;103960;-88
2021/04/04 06:44:46;;;;;;;;;1.25;0.75;;;;;14.15;40.03;98889.59;4866019;28;101994;-88
2021/04/04 06:47:40;;;;;;;;;1.00;1.00;;;;;14.15;39.91;98889.59;4860788;28;102237;-87
2021/04/04 06:50:10;;;;;;;;;1.00;1.00;;;;;14.14;39.14;98893.38;4860035;28;104173;-88
2021/04/04 06:52:56;;;;;;;;;2.50;1.75;;;;;14.13;39.69;98897.16;4860478;28;103383;-88
2021/04/04 06:55:46;;;;;;;;;1.25;1.25;;;;;14.12;39.08;98903.66;4858443;28;102629;-88
2021/04/04 06:58:40;;;;;;;;;1.75;1.00;;;;;14.12;39.64;98894.66;4859053;28;101845;-88
2021/04/04 07:01:36;;;;;;;;;1.25;1.25;;;;;14.11;39.97;98901.97;4855527;28;103681;-88
2021/04/04 07:04:32;;;;;;;;;1.25;1.25;;;;;14.12;39.08;98903.66;4865693;28;103414;-88
2021/04/04 07:07:23;;;;;;;;;2.00;2.00;;;;;14.13;39.74;98902.59;4856771;28;101830;-88
2021/04/04 07:10:15;;;;;;;;;2.00;1.00;;;;;14.11;39.03;98907.41;4866088;28;102202;-88
2021/04/04 07:13:03;;;;;;;;;1.00;1.00;;;;;14.12;39.78;98909.09;4860973;28;104020;-88
2021/04/04 07:15:32;;;;;;;;;1.00;1.00;;;;;14.12;39.28;98903.66;4862606;28;103463;-88
2021/04/04 07:18:14;;;;;;;;;2.00;2.00;;;;;14.13;39.86;98907.19;4862259;28;102129;-88
2021/04/04 07:20:52;;;;;;;;;1.00;0.00;;;;;14.12;39.05;98914.53;4876295;28;101958;-89
2021/04/04 07:23:45;;;;;;;;;1.25;1.25;;;;;14.13;39.71;98912.63;4886216;28;102229;-89
2021/04/04 07:26:40;;;;;;;;;1.00;1.00;;;;;14.12;39.87;98910.97;4853190;28;103713;-84
2021/04/04 07:29:22;;;;;;;;;1.00;1.00;;;;;14.11;39.25;98912.84;4875443;28;103006;-84
2021/04/04 07:31:52;;;;;;;;;2.00;1.25;;;;;14.11;39.27;98926.44;4859182;28;103940;-84
2021/04/04 07:34:29;;;;;;;;;0.50;0.50;;;;;14.12;39.86;98921.84;4868778;28;101849;-85
2021/04/04 07:37:04;;;;;;;;;2.50;1.00;;;;;14.12;39.16;98936.28;4866065;28;103881;-84
2021/04/04 07:39:34;;;;;;;;;0.00;0.00;;;;;14.10;39.04;98924.75;4879803;28;103084;-84
2021/04/04 07:42:23;;;;;;;;;2.25;1.00;;;;;14.11;39.38;98921.00;4884785;28;102069;-85
2021/04/04 07:45:11;;;;;;;;;1.00;1.00;;;;;14.09;38.84;98914.97;4881740;28;101856;-85
2021/04/04 07:48:11;;;;;;;;;1.25;1.00;;;;;14.11;39.77;98917.44;4849058;28;104055;-85
2021/04/04 07:51:12;;;;;;;;;1.75;1.00;;;;;14.12;39.92;98919.97;4884706;28;102065;-84
2021/04/04 07:53:56;;;;;;;;;0.50;0.50;;;;;14.11;39.33;98921.00;4880823;28;102100;-84
2021/04/04 07:56:43;;;;;;;;;1.00;1.00;;;;;14.13;39.76;98923.53;4863446;28;101857;-84
2021/04/04 07:59:13;;;;;;;;;0.00;0.00;;;;;14.13;39.69;98934.41;4880245;28;103413;-85
2021/04/04 08:01:52;;;;;;;;;1.75;1.00;;;;;14.14;39.54;98933.31;4861668;28;104402;-84
2021/04/04 08:04:27;;;;;;;;;0.25;0.00;;;;;14.13;39.39;98924.34;4852917;28;101919;-84
2021/04/04 08:07:06;;;;;;;;;1.50;1.00;;;;;14.11;39.28;98922.88;4865096;28;102232;-85
2021/04/04 08:09:36;;;;;;;;;2.00;1.00;;;;;14.13;38.79;98931.69;4880157;28;103743;-84
2021/04/04 08:12:34;;;;;;;;;1.00;1.00;;;;;14.12;39.29;98925.41;4857370;28;102145;-84
2021/04/04 08:15:07;;;;;;;;;0.50;0.50;;;;;14.13;39.08;98924.34;4859680;28;102324;-86
2021/04/04 08:17:34;;;;;;;;;1.00;0.00;;;;;14.12;39.68;98928.13;4871653;28;103256;-85
2021/04/04 08:20:11;;;;;;;;;2.00;1.00;;;;;14.12;39.65;98922.69;4878453;28;103394;-86
2021/04/04 08:22:39;;;;;;;;;1.00;0.00;;;;;14.13;38.85;98924.34;4862759;28;102297;-85
2021/04/04 08:25:12;;;;;;;;;1.00;1.00;;;;;14.15;39.01;98924.97;4874213;28;102506;-89
2021/04/04 08:27:52;;;;;;;;;0.25;0.25;;;;;14.13;39.29;98921.63;4870929;28;103406;-89
2021/04/04 08:30:39;;;;;;;;;0.25;0.25;;;;;14.15;39.67;98926.84;4844908;28;103457;-89
2021/04/04 08:33:12;;;;;;;;;0.50;0.00;;;;;14.13;39.61;98918.91;4855384;28;102177;-89
2021/04/04 08:35:39;;;;;;;;;0.25;0.00;;;;;14.14;39.50;98926.00;4872885;28;102116;-88
2021/04/04 08:38:11;;;;;;;;;1.00;1.00;;;;;14.15;39.34;98916.78;4874942;28;102177;-89
2021/04/04 08:40:38;;;;;;;;;1.00;1.00;;;;;14.16;40.17;98923.91;4877202;28;103454;-88
2021/04/04 08:43:05;;;;;;;;;0.50;0.50;;;;;14.14;39.29;98917.84;4875800;28;102819;-88
2021/04/04 08:45:40;;;;;;;;;0.00;0.00;;;;;14.15;40.20;98919.53;4869960;28;103628;-88
2021/04/04 08:48:06;;;;;;;;;1.50;0.75;;;;;14.17;39.72;98920.16;4858039;28;102049;-88
2021/04/04 08:50:34;;;;;;;;;1.50;1.00;;;;;14.16;39.91;98909.47;4838193;28;103563;-87
2021/04/04 08:53:25;;;;;;;;;0.00;0.00;;;;;14.16;39.25;98913.03;4872299;28;102035;-89
2021/04/04 08:55:53;;;;;;;;;1.50;1.00;;;;;14.16;39.65;98904.03;4840807;28;103165;-89
2021/04/04 08:58:28;;;;;;;;;1.00;1.00;;;;;14.16;39.83;98904.88;4877475;28;102841;-89
2021/04/04 09:00:57;;;;;;;;;1.50;0.75;;;;;14.16;39.21;98902.16;4871905;28;103625;-89
2021/04/04 09:03:24;;;;;;;;;1.00;1.00;;;;;14.17;39.65;98898.41;4847681;28;102174;-89
2021/04/04 09:06:04;;;;;;;;;0.00;0.00;;;;;14.20;39.67;98902.56;4878707;28;102479;-88
2021/04/04 09:08:31;;;;;;;;;1.75;1.00;;;;;14.20;39.15;98903.38;4878759;28;102222;-88
2021/04/04 09:10:59;;;;;;;;;1.50;0.00;;;;;14.21;39.55;98896.91;4878899;28;103704;-89
2021/04/04 09:13:31;;;;;;;;;1.00;1.00;;;;;14.23;39.91;98894.78;4875956;28;101892;-89
2021/04/04 09:16:00;;;;;;;;;0.25;0.00;;;;;14.22;39.76;98890.41;4863873;28;102941;-89
2021/04/04 09:18:27;;;;;;;;;0.00;0.00;;;;;14.24;39.91;98891.03;4881456;28;102013;-88
2021/04/04 09:21:06;;;;;;;;;1.00;1.00;;;;;14.25;39.95;98889.13;4875852;28;103422;-89
2021/04/04 09:23:33;;;;;;;;;0.00;0.00;;;;;14.25;39.65;98894.56;4856339;28;103480;-89
2021/04/04 09:26:05;;;;;;;;;1.00;1.00;;;;;14.24;40.04;98882.88;4853295;28;102357;-84
2021/04/04 09:28:34;;;;;;;;;1.00;0.00;;;;;14.24;39.53;98882.88;4847617;28;102066;-84
2021/04/04 09:31:01;;;;;;;;;0.50;0.00;;;;;14.25;38.88;98881.81;4874982;28;103501;-84
2021/04/04 09:33:29;;;;;;;;;0.00;0.00;;;;;14.26;39.53;98891.66;4850200;28;102396;-84
2021/04/04 09:35:58;;;;;;;;;0.50;0.00;;;;;14.26;39.10;98888.94;4841309;28;104273;-84
2021/04/04 09:38:36;;;;;;;;;1.00;0.00;;;;;14.27;39.02;98887.06;4858882;28;104908;-86
2021/04/04 09:41:04;;;;;;;;;1.00;0.25;;;;;14.30;39.95;98892.03;4879517;28;104695;-86
2021/04/04 09:43:31;;;;;;;;;1.00;0.25;;;;;14.39;41.27;98890.78;4880156;28;104255;-86
2021/04/04 09:46:03;;;;;;;;;0.00;0.00;;;;;14.49;43.49;98893.84;4861850;28;102645;-86
2021/04/04 09:48:30;;;;;;;;;0.75;0.00;;;;;14.57;45.00;98887.31;4872228;28;102195;-87
2021/04/04 09:51:17;;;;;;;;;0.00;0.00;;;;;14.66;46.30;98896.88;4878874;28;104238;-87
2021/04/04 09:53:45;;;;;;;;;0.00;0.00;;;;;14.73;46.99;98882.16;4885040;28;102728;-87
2021/04/04 09:56:13;;;;;;;;;0.50;0.00;;;;;14.79;47.24;98888.63;4882510;28;102272;-86
2021/04/04 09:58:42;;;;;;;;;1.00;0.00;;;;;14.85;47.28;98885.00;4879708;28;103143;-87
2021/04/04 10:01:24;;;;;;;;;1.00;0.00;;;;;14.91;47.65;98884.09;4865013;28;102787;-87
2021/04/04 10:04:03;;;;;;;;;1.00;0.00;;;;;14.96;47.47;98881.56;4886335;28;102212;-87
2021/04/04 10:06:31;;;;;;;;;0.00;0.00;;;;;15.02;47.73;98879.84;4836234;28;102069;-85
2021/04/04 10:09:05;;;;;;;;;0.00;0.00;;;;;15.03;47.64;98882.34;4873441;28;102185;-85
2021/04/04 10:11:33;;;;;;;;;1.00;0.00;;;;;15.02;47.58;98877.97;4872425;28;104539;-85
2021/04/04 10:14:13;;;;;;;;;0.00;0.00;;;;;15.01;46.03;98876.28;4856692;28;102936;-83
2021/04/04 10:16:41;;;;;;;;;0.00;0.00;;;;;15.04;46.53;98873.09;4881148;28;101788;-83
2021/04/04 10:19:17;;;;;;;;;0.25;0.00;;;;;15.02;46.06;98866.22;4883452;28;101798;-85
2021/04/04 10:21:57;;;;;;;;;0.00;0.00;;;;;15.02;46.57;98861.63;4880622;28;103779;-86
2021/04/04 10:24:30;;;;;;;;;0.00;0.00;;;;;15.02;46.39;98874.41;4882236;28;104539;-86
2021/04/04 10:27:24;;;;;;;;;0.00;0.00;;;;;15.02;45.53;98861.63;4880935;28;101681;-87
2021/04/04 10:30:16;;;;;;;;;0.00;0.00;;;;;15.01;44.63;98850.94;4881441;28;103562;-86
2021/04/04 10:32:49;;;;;;;;;0.00;0.00;;;;;15.00;44.65;98863.72;4876705;28;103558;-88
2021/04/04 10:35:33;;;;;;;;;0.00;0.00;;;;;14.99;44.97;98853.06;4880782;28;102027;-88
2021/04/04 10:38:03;;;;;;;;;0.00;0.00;;;;;14.97;44.36;98847.00;4865715;28;101829;-87
2021/04/04 10:40:47;;;;;;;;;0.00;0.00;;;;;14.97;44.30;98856.00;4883199;28;102087;-87
2021/04/04 10:43:15;;;;;;;;;0.00;0.00;;;;;14.98;43.91;98857.69;4861991;28;103486;-87
2021/04/04 10:46:06;;;;;;;;;0.00;0.00;;;;;14.98;43.95;98856.84;4873119;28;102023;-87
2021/04/04 10:48:43;;;;;;;;;0.75;0.75;;;;;14.98;43.15;98852.22;4879751;28;102208;-87
2021/04/04 10:51:11;;;;;;;;;0.00;0.00;;;;;14.96;43.18;98848.03;4879257;28;104479;-85
2021/04/04 10:53:38;;;;;;;;;0.00;0.00;;;;;14.95;43.52;98844.47;4875203;28;103543;-85
2021/04/04 10:56:05;;;;;;;;;0.00;0.00;;;;;14.96;43.12;98839.88;4873593;28;101911;-87
2021/04/04 10:58:32;;;;;;;;;0.00;0.00;;;;;14.95;42.81;98835.50;4878008;28;102102;-88
2021/04/04 11:01:00;;;;;;;;;0.00;0.00;;;;;14.94;42.74;98828.38;4863441;28;102270;-87
2021/04/04 11:03:27;;;;;;;;;0.00;0.00;;;;;14.94;43.45;98831.94;4879191;28;103459;-87
2021/04/04 11:05:54;;;;;;;;;0.00;0.00;;;;;14.94;42.51;98836.56;4858777;28;102115;-88
2021/04/04 11:08:21;;;;;;;;;0.00;0.00;;;;;14.92;42.29;98833.22;4876743;28;102676;-88
2021/04/04 11:10:48;;;;;;;;;0.00;0.00;;;;;14.92;42.95;98831.31;4872879;28;102168;-88
2021/04/04 11:13:16;;;;;;;;;0.00;0.00;;;;;14.92;42.55;98825.88;4862616;28;103316;-88
2021/04/04 11:15:49;;;;;;;;;0.00;0.00;;;;;14.92;42.43;98825.88;4877513;28;101907;-87
2021/04/04 11:18:44;;;;;;;;;0.00;0.00;;;;;14.92;42.37;98828.59;4874588;28;103851;-86
2021/04/04 11:21:13;;;;;;;;;0.00;0.00;;;;;14.91;42.26;98829.66;4875630;28;102275;-85
2021/04/04 11:23:40;;;;;;;;;0.00;0.00;;;;;14.91;42.12;98823.38;4876861;28;103622;-86
2021/04/04 11:26:30;;;;;;;;;0.25;0.00;;;;;14.90;42.79;98825.28;4855540;28;102231;-86
2021/04/04 11:29:16;;;;;;;;;0.00;0.00;;;;;14.89;42.63;98820.91;4874238;28;102260;-86
2021/04/04 11:31:46;;;;;;;;;1.00;0.00;;;;;14.89;42.53;98822.78;4875972;28;102496;-86
2021/04/04 11:34:30;;;;;;;;;0.00;0.00;;;;;14.89;42.10;98815.44;4858139;28;103692;-86
2021/04/04 11:37:04;;;;;;;;;0.75;0.00;;;;;14.90;42.28;98825.28;4872224;28;101972;-86
2021/04/04 11:39:32;;;;;;;;;0.00;0.00;;;;;14.89;42.61;98815.44;4877732;28;102959;-85
2021/04/04 11:42:02;;;;;;;;;0.00;0.00;;;;;14.90;42.55;98816.28;4873088;28;102312;-85
2021/04/04 11:44:35;;;;;;;;;0.50;0.00;;;;;14.87;42.04;98803.94;4877417;28;103907;-85
2021/04/04 11:47:03;;;;;;;;;0.00;0.00;;;;;14.88;42.18;98800.16;4873811;28;101811;-85
2021/04/04 11:49:31;;;;;;;;;0.00;0.00;;;;;14.90;41.91;98808.13;4872101;28;102567;-85